Time;durP1;ratioP1;P1;durP2;ratioP2;P2;SDS_P1;SDS_P2;PMS_P1;PMS_P2;Temp;Humidity;BMP_temperature;BMP_pressure;BME280_temperature;BME280_humidity;BME280_pressure;Samples;Min_cycle;Max_cycle;Signal;HPM_P1;HPM_P2
2021/04/07 00:01:41;;;;;;;15.73;3.50;;;;;;;;;;5074553;28;20107;-67
2021/04/07 00:04:06;;;;;;;11.18;4.20;;;;;;;;;;5079229;28;20028;-67
2021/04/07 00:06:34;;;;;;;15.18;3.75;;;;;;;;;;5078103;28;20430;-67
2021/04/07 00:09:00;;;;;;;13.80;3.97;;;;;;;;;;5072460;28;20036;-66
2021/04/07 00:11:25;;;;;;;6.60;2.97;;;;;;;;;;5073868;28;20046;-66
2021/04/07 00:13:50;;;;;;;10.40;3.67;;;;;;;;;;5079313;28;20035;-66
2021/04/07 00:16:15;;;;;;;6.50;3.60;;;;;;;;;;5078784;28;20055;-66
2021/04/07 00:18:41;;;;;;;7.43;3.42;;;;;;;;;;5071366;28;20333;-66
2021/04/07 00:21:06;;;;;;;18.48;5.35;;;;;;;;;;5074067;28;20082;-66
2021/04/07 00:23:31;;;;;;;4.78;2.95;;;;;;;;;;5075074;28;20020;-67
2021/04/07 00:25:57;;;;;;;26.50;4.82;;;;;;;;;;5079894;28;20051;-66
2021/04/07 00:28:22;;;;;;;8.88;3.25;;;;;;;;;;5068784;28;20031;-66
2021/04/07 00:30:48;;;;;;;17.83;4.22;;;;;;;;;;5075921;28;20028;-67
2021/04/07 00:33:14;;;;;;;5.63;3.22;;;;;;;;;;5079817;28;20051;-67
2021/04/07 00:35:39;;;;;;;15.40;5.00;;;;;;;;;;5077975;28;20025;-66
2021/04/07 00:38:04;;;;;;;14.90;5.35;;;;;;;;;;5077120;28;20436;-67
2021/04/07 00:40:30;;;;;;;7.00;4.03;;;;;;;;;;5080280;28;20597;-67
2021/04/07 00:42:55;;;;;;;13.85;3.95;;;;;;;;;;5076609;28;20474;-67
2021/04/07 00:45:21;;;;;;;16.73;3.90;;;;;;;;;;5073873;28;20112;-67
2021/04/07 00:47:48;;;;;;;11.25;4.22;;;;;;;;;;5070580;28;20036;-67
2021/04/07 00:50:13;;;;;;;13.50;5.72;;;;;;;;;;5073680;28;20058;-67
2021/04/07 00:52:38;;;;;;;15.40;4.50;;;;;;;;;;5077778;28;20032;-67
2021/04/07 00:55:05;;;;;;;8.32;3.58;;;;;;;;;;5084358;28;20031;-67
2021/04/07 00:57:30;;;;;;;7.88;4.07;;;;;;;;;;5080742;28;20064;-67
2021/04/07 00:59:56;;;;;;;9.93;3.33;;;;;;;;;;5084594;28;20086;-67
2021/04/07 01:02:22;;;;;;;7.68;3.92;;;;;;;;;;5082114;28;20557;-67
2021/04/07 01:04:47;;;;;;;12.88;4.38;;;;;;;;;;5083472;28;20095;-66
2021/04/07 01:07:13;;;;;;;15.75;4.82;;;;;;;;;;5083119;28;20055;-67
2021/04/07 01:09:39;;;;;;;10.65;3.95;;;;;;;;;;5080310;28;20024;-67
2021/04/07 01:12:05;;;;;;;7.90;3.88;;;;;;;;;;5079228;28;20055;-67
2021/04/07 01:14:31;;;;;;;13.10;3.65;;;;;;;;;;5081954;28;20375;-66
2021/04/07 01:16:57;;;;;;;9.25;2.78;;;;;;;;;;5086865;28;20495;-66
2021/04/07 01:19:24;;;;;;;6.18;3.72;;;;;;;;;;5078973;28;20023;-66
2021/04/07 01:21:49;;;;;;;10.45;4.70;;;;;;;;;;5086262;28;20470;-66
2021/04/07 01:24:15;;;;;;;11.88;3.88;;;;;;;;;;5085714;28;20020;-66
2021/04/07 01:26:41;;;;;;;14.48;4.32;;;;;;;;;;5085357;28;20056;-66
2021/04/07 01:29:06;;;;;;;7.32;4.55;;;;;;;;;;5086825;28;20028;-66
2021/04/07 01:31:32;;;;;;;7.38;3.58;;;;;;;;;;5080726;28;20024;-66
2021/04/07 01:33:57;;;;;;;12.35;3.95;;;;;;;;;;5086841;28;20086;-66
2021/04/07 01:36:23;;;;;;;8.55;3.65;;;;;;;;;;5084728;28;20050;-67
2021/04/07 01:38:48;;;;;;;8.07;4.03;;;;;;;;;;5085260;28;20027;-66
2021/04/07 01:41:14;;;;;;;4.72;2.22;;;;;;;;;;5085896;28;20493;-66
2021/04/07 01:43:40;;;;;;;16.75;3.95;;;;;;;;;;5084462;28;20016;-67
2021/04/07 01:46:05;;;;;;;14.98;5.82;;;;;;;;;;5082239;28;20024;-66
2021/04/07 01:48:31;;;;;;;14.40;4.68;;;;;;;;;;5080784;28;20078;-67
2021/04/07 01:50:56;;;;;;;15.00;3.30;;;;;;;;;;5076194;28;20024;-66
2021/04/07 01:53:22;;;;;;;17.88;4.47;;;;;;;;;;5082697;28;20165;-66
2021/04/07 01:55:47;;;;;;;9.77;3.83;;;;;;;;;;5085175;28;20032;-66
2021/04/07 01:58:13;;;;;;;17.17;4.30;;;;;;;;;;5085584;28;20028;-67
2021/04/07 02:00:39;;;;;;;9.13;2.30;;;;;;;;;;5084374;28;20107;-66
2021/04/07 02:03:04;;;;;;;7.88;3.10;;;;;;;;;;5086373;28;20016;-66
2021/04/07 02:05:30;;;;;;;7.07;3.65;;;;;;;;;;5077285;28;20020;-65
2021/04/07 02:07:56;;;;;;;17.58;2.38;;;;;;;;;;5086430;28;20039;-66
2021/04/07 02:10:21;;;;;;;8.75;2.80;;;;;;;;;;5084073;28;20028;-66
2021/04/07 02:12:51;;;;;;;15.90;3.70;;;;;;;;;;5085108;28;20031;-66
2021/04/07 02:15:16;;;;;;;14.77;3.53;;;;;;;;;;5084497;28;20051;-66
2021/04/07 02:17:41;;;;;;;19.17;3.65;;;;;;;;;;5084301;28;20438;-67
2021/04/07 02:20:08;;;;;;;8.88;4.40;;;;;;;;;;5086273;28;20031;-66
2021/04/07 02:22:33;;;;;;;7.72;3.40;;;;;;;;;;5083096;28;20016;-66
2021/04/07 02:24:59;;;;;;;13.93;2.22;;;;;;;;;;5085990;28;20031;-66
2021/04/07 02:27:25;;;;;;;23.17;3.97;;;;;;;;;;5083785;28;20381;-66
2021/04/07 02:29:51;;;;;;;14.38;3.10;;;;;;;;;;5085687;28;20587;-66
2021/04/07 02:32:16;;;;;;;6.82;2.70;;;;;;;;;;5081054;28;20103;-66
2021/04/07 02:34:43;;;;;;;6.93;3.25;;;;;;;;;;5079139;28;20107;-67
2021/04/07 02:37:09;;;;;;;5.00;2.15;;;;;;;;;;5085674;28;20074;-66
2021/04/07 02:39:34;;;;;;;14.30;2.75;;;;;;;;;;5082971;28;20017;-68
2021/04/07 02:41:59;;;;;;;11.73;4.15;;;;;;;;;;5086066;28;20039;-66
2021/04/07 02:44:25;;;;;;;6.43;2.85;;;;;;;;;;5077648;28;20371;-66
2021/04/07 02:46:50;;;;;;;13.02;4.55;;;;;;;;;;5084735;28;20469;-67
2021/04/07 02:49:15;;;;;;;12.77;3.08;;;;;;;;;;5086181;28;20351;-66
2021/04/07 02:51:41;;;;;;;7.43;2.75;;;;;;;;;;5087833;28;20045;-66
2021/04/07 02:54:06;;;;;;;8.15;2.92;;;;;;;;;;5090165;28;20058;-66
2021/04/07 02:56:31;;;;;;;16.77;2.60;;;;;;;;;;5086894;28;20381;-67
2021/04/07 02:58:57;;;;;;;16.02;2.80;;;;;;;;;;5089773;28;20505;-66
2021/04/07 03:01:22;;;;;;;18.00;3.60;;;;;;;;;;5088105;28;20016;-66
2021/04/07 03:03:47;;;;;;;5.75;2.83;;;;;;;;;;5088662;28;20025;-66
2021/04/07 03:06:13;;;;;;;4.88;2.08;;;;;;;;;;5089158;28;20116;-66
2021/04/07 03:08:38;;;;;;;8.00;3.20;;;;;;;;;;5087452;28;20028;-66
2021/04/07 03:11:03;;;;;;;8.32;2.03;;;;;;;;;;5084642;28;20021;-66
2021/04/07 03:13:29;;;;;;;11.23;2.28;;;;;;;;;;5086187;28;20527;-66
2021/04/07 03:15:54;;;;;;;11.15;2.15;;;;;;;;;;5089431;28;20048;-66
2021/04/07 03:18:19;;;;;;;16.10;4.15;;;;;;;;;;5084021;28;20032;-66
2021/04/07 03:20:45;;;;;;;8.68;3.83;;;;;;;;;;5086151;28;20149;-66
2021/04/07 03:23:10;;;;;;;12.63;3.45;;;;;;;;;;5085959;28;20051;-67
2021/04/07 03:25:35;;;;;;;7.60;3.33;;;;;;;;;;5081532;28;20463;-66
2021/04/07 03:28:00;;;;;;;17.38;3.72;;;;;;;;;;5089410;28;20035;-66
2021/04/07 03:30:26;;;;;;;15.88;3.95;;;;;;;;;;5086385;28;20353;-66
2021/04/07 03:32:51;;;;;;;13.20;2.67;;;;;;;;;;5085727;28;20528;-66
2021/04/07 03:35:16;;;;;;;6.03;4.03;;;;;;;;;;5087518;28;20362;-66
2021/04/07 03:37:42;;;;;;;6.22;2.33;;;;;;;;;;5083304;28;20035;-66
2021/04/07 03:40:08;;;;;;;4.45;2.20;;;;;;;;;;5089000;28;20081;-66
2021/04/07 03:42:33;;;;;;;5.10;2.05;;;;;;;;;;5085883;28;20025;-66
2021/04/07 03:44:59;;;;;;;10.43;2.83;;;;;;;;;;5084375;28;20016;-66
2021/04/07 03:47:24;;;;;;;6.38;2.80;;;;;;;;;;5086285;28;20386;-67
2021/04/07 03:49:49;;;;;;;6.95;2.58;;;;;;;;;;5088253;28;20036;-66
2021/04/07 03:52:14;;;;;;;4.47;3.03;;;;;;;;;;5087709;28;20102;-66
2021/04/07 03:54:40;;;;;;;12.00;3.08;;;;;;;;;;5086877;28;20484;-66
2021/04/07 03:57:05;;;;;;;5.15;2.30;;;;;;;;;;5088977;28;20028;-67
2021/04/07 03:59:31;;;;;;;9.18;2.30;;;;;;;;;;5085410;28;20013;-66
2021/04/07 04:01:56;;;;;;;21.05;3.78;;;;;;;;;;5088001;28;20024;-67
2021/04/07 04:04:21;;;;;;;9.93;2.97;;;;;;;;;;5086278;28;20016;-66
2021/04/07 04:06:49;;;;;;;6.65;2.75;;;;;;;;;;5087150;28;20081;-67
2021/04/07 04:09:15;;;;;;;6.15;3.13;;;;;;;;;;5082834;28;20017;-66
2021/04/07 04:11:41;;;;;;;7.15;3.40;;;;;;;;;;5086617;28;20032;-66
2021/04/07 04:14:06;;;;;;;7.53;2.92;;;;;;;;;;5088498;28;20028;-66
2021/04/07 04:16:31;;;;;;;13.57;2.70;;;;;;;;;;5083578;28;20048;-66
2021/04/07 04:18:57;;;;;;;5.30;2.75;;;;;;;;;;5088294;28;20030;-66
2021/04/07 04:21:22;;;;;;;3.67;1.55;;;;;;;;;;5086265;28;20020;-66
2021/04/07 04:23:47;;;;;;;12.32;4.10;;;;;;;;;;5087240;28;20083;-66
2021/04/07 04:26:12;;;;;;;13.55;1.80;;;;;;;;;;5087610;28;20070;-66
2021/04/07 04:28:38;;;;;;;12.05;2.50;;;;;;;;;;5085540;28;20024;-67
2021/04/07 04:31:03;;;;;;;6.38;1.73;;;;;;;;;;5083602;28;20032;-67
2021/04/07 04:33:28;;;;;;;10.65;2.15;;;;;;;;;;5074070;28;20052;-66
2021/04/07 04:35:57;;;;;;;6.50;1.45;;;;;;;;;;5088240;28;20115;-66
2021/04/07 04:38:23;;;;;;;23.83;4.05;;;;;;;;;;5084990;28;20020;-66
2021/04/07 04:40:48;;;;;;;4.63;2.53;;;;;;;;;;5087292;28;20104;-66
2021/04/07 04:43:13;;;;;;;12.90;3.63;;;;;;;;;;5086836;28;20078;-66
2021/04/07 04:45:39;;;;;;;8.93;2.17;;;;;;;;;;5085641;28;20020;-66
2021/04/07 04:48:04;;;;;;;9.63;2.05;;;;;;;;;;5087831;28;20027;-67
2021/04/07 04:50:30;;;;;;;14.32;2.70;;;;;;;;;;5084390;28;20022;-66
2021/04/07 04:52:55;;;;;;;11.48;4.22;;;;;;;;;;5087791;28;20024;-66
2021/04/07 04:55:20;;;;;;;11.13;3.38;;;;;;;;;;5085697;28;20035;-66
2021/04/07 04:57:45;;;;;;;4.43;3.25;;;;;;;;;;5086196;28;20082;-66
2021/04/07 05:00:11;;;;;;;25.52;6.60;;;;;;;;;;5086937;28;20020;-67
2021/04/07 05:02:36;;;;;;;9.45;3.05;;;;;;;;;;5084816;28;20532;-67
2021/04/07 05:05:02;;;;;;;15.20;2.55;;;;;;;;;;5082889;28;20051;-66
2021/04/07 05:07:27;;;;;;;3.25;2.63;;;;;;;;;;5084176;28;20028;-67
2021/04/07 05:09:53;;;;;;;18.48;2.42;;;;;;;;;;5081681;28;20024;-66
2021/04/07 05:12:19;;;;;;;17.58;3.22;;;;;;;;;;5085526;28;20024;-66
2021/04/07 05:14:45;;;;;;;12.27;3.40;;;;;;;;;;5085598;28;20078;-66
2021/04/07 05:17:10;;;;;;;9.77;3.08;;;;;;;;;;5086470;28;20467;-66
2021/04/07 05:19:35;;;;;;;7.05;3.78;;;;;;;;;;5084458;28;20069;-66
2021/04/07 05:22:01;;;;;;;5.97;2.88;;;;;;;;;;5087198;28;20367;-67
2021/04/07 05:24:26;;;;;;;10.75;3.70;;;;;;;;;;5083466;28;20064;-67
2021/04/07 05:26:51;;;;;;;5.70;2.35;;;;;;;;;;5085992;28;20051;-68
2021/04/07 05:29:17;;;;;;;9.25;3.90;;;;;;;;;;5084505;28;20016;-68
2021/04/07 05:31:42;;;;;;;18.13;3.63;;;;;;;;;;5081731;28;20017;-68
2021/04/07 05:34:07;;;;;;;15.27;3.83;;;;;;;;;;5085583;28;20039;-68
2021/04/07 05:36:33;;;;;;;31.05;4.85;;;;;;;;;;5082769;28;20414;-68
2021/04/07 05:38:58;;;;;;;11.90;4.55;;;;;;;;;;5085726;28;20471;-68
2021/04/07 05:41:23;;;;;;;7.65;3.17;;;;;;;;;;5083043;28;20085;-68
2021/04/07 05:43:49;;;;;;;7.30;3.83;;;;;;;;;;5078809;28;20476;-68
2021/04/07 05:46:14;;;;;;;13.65;3.80;;;;;;;;;;5084443;28;20024;-68
2021/04/07 05:48:40;;;;;;;19.67;4.75;;;;;;;;;;5082602;28;20495;-68
2021/04/07 05:51:05;;;;;;;5.25;2.55;;;;;;;;;;5080142;28;20032;-69
2021/04/07 05:53:31;;;;;;;7.88;3.95;;;;;;;;;;5081478;28;20036;-69
2021/04/07 05:55:57;;;;;;;16.67;2.72;;;;;;;;;;5085303;28;20471;-68
2021/04/07 05:58:23;;;;;;;11.38;4.25;;;;;;;;;;5082277;28;20027;-68
2021/04/07 06:00:49;;;;;;;13.10;4.47;;;;;;;;;;5083723;28;20343;-68
2021/04/07 06:03:15;;;;;;;8.00;2.55;;;;;;;;;;5082896;28;20016;-68
2021/04/07 06:05:41;;;;;;;7.80;4.30;;;;;;;;;;5081835;28;20032;-68
2021/04/07 06:08:06;;;;;;;12.40;4.82;;;;;;;;;;5079638;28;20024;-68
2021/04/07 06:10:32;;;;;;;18.08;4.03;;;;;;;;;;5076521;28;20415;-69
2021/04/07 06:12:58;;;;;;;8.80;4.97;;;;;;;;;;5080664;28;20063;-68
2021/04/07 06:15:23;;;;;;;11.20;4.10;;;;;;;;;;5074800;28;20486;-69
2021/04/07 06:18:05;;;;;;;8.68;3.85;;;;;;;;;;5080254;28;20024;-69
2021/04/07 06:20:33;;;;;;;8.20;3.55;;;;;;;;;;5078603;28;20036;-70
2021/04/07 06:22:59;;;;;;;9.55;4.68;;;;;;;;;;5080478;28;20020;-70
2021/04/07 06:25:25;;;;;;;11.63;4.50;;;;;;;;;;5077588;28;20030;-70
2021/04/07 06:27:55;;;;;;;7.25;4.25;;;;;;;;;;5067555;28;20028;-70
2021/04/07 06:30:24;;;;;;;15.07;4.32;;;;;;;;;;5067294;28;20076;-70
2021/04/07 06:32:49;;;;;;;15.63;5.53;;;;;;;;;;5070823;28;20074;-70
2021/04/07 06:35:15;;;;;;;9.90;4.30;;;;;;;;;;5068388;28;20474;-70
2021/04/07 06:37:40;;;;;;;10.18;4.55;;;;;;;;;;5072770;28;20111;-70
2021/04/07 06:40:05;;;;;;;8.43;2.30;;;;;;;;;;5077428;28;20044;-69
2021/04/07 06:42:31;;;;;;;5.88;3.30;;;;;;;;;;5077773;28;20029;-70
2021/04/07 06:44:57;;;;;;;8.77;3.30;;;;;;;;;;5081195;28;20081;-70
2021/04/07 06:47:22;;;;;;;11.90;3.80;;;;;;;;;;5078896;28;20039;-70
2021/04/07 06:49:48;;;;;;;12.30;2.90;;;;;;;;;;5080107;28;20029;-69
2021/04/07 06:52:19;;;;;;;9.10;2.78;;;;;;;;;;5078902;28;20113;-69
2021/04/07 06:54:50;;;;;;;11.18;3.83;;;;;;;;;;5079431;28;20459;-69
2021/04/07 06:57:16;;;;;;;16.10;2.88;;;;;;;;;;5079626;28;20375;-69
2021/04/07 06:59:43;;;;;;;7.53;2.85;;;;;;;;;;5078552;28;20033;-66
2021/04/07 07:02:08;;;;;;;8.10;2.13;;;;;;;;;;5080616;28;20048;-66
2021/04/07 07:04:34;;;;;;;9.02;3.30;;;;;;;;;;5078340;28;20048;-66
2021/04/07 07:06:59;;;;;;;8.70;2.78;;;;;;;;;;5081173;28;20027;-66
2021/04/07 07:09:24;;;;;;;6.93;2.75;;;;;;;;;;5074185;28;20074;-66
2021/04/07 07:11:50;;;;;;;9.07;3.47;;;;;;;;;;5080258;28;20448;-66
2021/04/07 07:14:16;;;;;;;10.35;2.47;;;;;;;;;;5079879;28;20028;-66
2021/04/07 07:16:45;;;;;;;2.97;1.48;;;;;;;;;;5078892;28;20052;-65
2021/04/07 07:19:39;;;;;;;10.82;3.78;;;;;;;;;;5074863;28;20025;-66
2021/04/07 07:22:07;;;;;;;6.63;3.40;;;;;;;;;;5063710;28;20044;-66
2021/04/07 07:24:38;;;;;;;10.70;3.08;;;;;;;;;;5077000;28;20846;-66
2021/04/07 07:27:04;;;;;;;13.85;3.15;;;;;;;;;;5081037;28;20088;-66
2021/04/07 07:29:31;;;;;;;4.40;3.13;;;;;;;;;;5073100;28;20036;-71
2021/04/07 07:31:57;;;;;;;4.13;2.65;;;;;;;;;;5076618;28;20036;-67
2021/04/07 07:34:26;;;;;;;14.90;4.43;;;;;;;;;;5077988;28;20031;-68
2021/04/07 07:36:52;;;;;;;12.95;2.72;;;;;;;;;;5078283;28;20087;-70
2021/04/07 07:39:28;;;;;;;7.88;2.90;;;;;;;;;;5071962;28;20031;-70
2021/04/07 07:41:59;;;;;;;8.20;3.72;;;;;;;;;;5069338;28;20035;-69
2021/04/07 07:44:25;;;;;;;10.63;4.05;;;;;;;;;;5068787;28;20025;-69
2021/04/07 07:47:02;;;;;;;10.52;4.57;;;;;;;;;;5069023;28;20043;-70
2021/04/07 07:49:27;;;;;;;10.93;3.22;;;;;;;;;;5069978;28;20032;-70
2021/04/07 07:51:52;;;;;;;10.52;3.33;;;;;;;;;;5070065;28;20032;-71
2021/04/07 07:54:19;;;;;;;6.60;3.03;;;;;;;;;;5069902;28;20062;-71
2021/04/07 07:56:44;;;;;;;9.32;3.00;;;;;;;;;;5069176;28;20033;-71
2021/04/07 07:59:10;;;;;;;9.90;3.90;;;;;;;;;;5068710;28;20020;-73
2021/04/07 08:01:42;;;;;;;9.18;3.03;;;;;;;;;;5069622;28;20035;-71
2021/04/07 08:04:07;;;;;;;10.23;3.70;;;;;;;;;;5069004;28;20122;-71
2021/04/07 08:06:33;;;;;;;11.73;3.55;;;;;;;;;;5070076;28;20470;-71
2021/04/07 08:08:58;;;;;;;8.05;2.97;;;;;;;;;;5069674;28;20749;-70
2021/04/07 08:11:24;;;;;;;8.60;3.30;;;;;;;;;;5070251;28;20035;-70
2021/04/07 08:13:52;;;;;;;13.88;4.05;;;;;;;;;;5074041;28;20042;-72
2021/04/07 08:16:19;;;;;;;17.58;4.57;;;;;;;;;;5071785;28;20056;-69
2021/04/07 08:18:45;;;;;;;11.25;4.53;;;;;;;;;;5075111;28;20395;-70
2021/04/07 08:21:12;;;;;;;16.55;4.15;;;;;;;;;;5073269;28;20475;-71
2021/04/07 08:23:41;;;;;;;4.78;2.15;;;;;;;;;;5073113;28;20028;-71
2021/04/07 08:26:07;;;;;;;11.85;5.22;;;;;;;;;;5068217;28;20103;-71
2021/04/07 08:28:33;;;;;;;15.68;2.22;;;;;;;;;;5069409;28;20493;-71
2021/04/07 08:30:58;;;;;;;14.70;3.75;;;;;;;;;;5070500;28;20031;-71
2021/04/07 08:33:24;;;;;;;15.10;3.50;;;;;;;;;;5072053;28;20487;-71
2021/04/07 08:35:53;;;;;;;7.63;3.70;;;;;;;;;;5072795;28;20114;-71
2021/04/07 08:38:29;;;;;;;6.30;2.65;;;;;;;;;;5071036;28;20120;-72
2021/04/07 08:41:05;;;;;;;7.35;3.42;;;;;;;;;;5071922;28;20024;-73
2021/04/07 08:43:31;;;;;;;12.90;4.53;;;;;;;;;;5071605;28;20033;-74
2021/04/07 08:45:57;;;;;;;24.67;5.63;;;;;;;;;;5069289;28;20012;-74
2021/04/07 08:48:22;;;;;;;7.80;2.55;;;;;;;;;;5068341;28;20447;-73
2021/04/07 08:51:09;;;;;;;13.10;7.47;;;;;;;;;;5073241;28;20025;-72
2021/04/07 08:53:40;;;;;;;8.18;4.75;;;;;;;;;;5069604;28;20029;-72
2021/04/07 08:56:07;;;;;;;8.05;3.28;;;;;;;;;;5071068;28;20116;-72
2021/04/07 08:58:32;;;;;;;13.10;5.15;;;;;;;;;;5070519;28;20020;-72
2021/04/07 09:00:58;;;;;;;4.47;2.20;;;;;;;;;;5069711;28;20481;-72
2021/04/07 09:03:25;;;;;;;8.95;3.90;;;;;;;;;;5064073;28;20024;-71
2021/04/07 09:05:52;;;;;;;6.85;2.00;;;;;;;;;;5067280;28;20382;-70
2021/04/07 09:08:19;;;;;;;7.22;3.55;;;;;;;;;;5067259;28;20039;-72
2021/04/07 09:10:46;;;;;;;4.20;2.50;;;;;;;;;;5081052;28;20036;-72
2021/04/07 09:13:12;;;;;;;21.40;5.35;;;;;;;;;;5076574;28;20162;-73
2021/04/07 09:15:47;;;;;;;10.68;4.00;;;;;;;;;;5067711;28;20494;-72
2021/04/07 09:18:14;;;;;;;26.30;10.45;;;;;;;;;;5074586;28;20403;-71
2021/04/07 09:20:47;;;;;;;11.30;4.82;;;;;;;;;;5073803;28;20035;-72
2021/04/07 09:23:17;;;;;;;8.77;5.15;;;;;;;;;;5081839;28;20453;-73
2021/04/07 09:25:46;;;;;;;8.73;3.53;;;;;;;;;;5080882;28;20031;-73
2021/04/07 09:28:12;;;;;;;16.65;3.45;;;;;;;;;;5081316;28;20043;-73
2021/04/07 09:30:47;;;;;;;9.13;4.60;;;;;;;;;;5080654;28;20028;-73
2021/04/07 09:33:17;;;;;;;9.60;2.90;;;;;;;;;;5076415;28;20043;-73
2021/04/07 09:35:55;;;;;;;33.08;4.20;;;;;;;;;;5080847;28;20028;-72
2021/04/07 09:38:20;;;;;;;9.10;3.30;;;;;;;;;;5080717;28;20413;-74
2021/04/07 09:40:46;;;;;;;16.27;4.05;;;;;;;;;;5081595;28;20021;-75
2021/04/07 09:43:11;;;;;;;17.10;3.08;;;;;;;;;;5071318;28;20025;-74
2021/04/07 09:45:37;;;;;;;9.68;4.10;;;;;;;;;;5072811;28;20029;-74
2021/04/07 09:48:03;;;;;;;13.73;3.92;;;;;;;;;;5076296;28;20071;-74
2021/04/07 09:50:31;;;;;;;20.15;6.55;;;;;;;;;;5079836;28;20483;-71
2021/04/07 09:52:57;;;;;;;15.57;4.75;;;;;;;;;;5073958;28;20741;-71
2021/04/07 09:55:23;;;;;;;10.70;3.75;;;;;;;;;;5078524;28;20119;-72
2021/04/07 09:57:58;;;;;;;4.70;3.25;;;;;;;;;;5081224;28;20071;-71
2021/04/07 10:00:27;;;;;;;10.80;2.30;;;;;;;;;;5079644;28;20024;-72
2021/04/07 10:02:52;;;;;;;9.02;3.63;;;;;;;;;;5077693;28;20474;-72
2021/04/07 10:05:25;;;;;;;7.60;4.50;;;;;;;;;;5080707;28;20028;-72
2021/04/07 10:07:50;;;;;;;13.93;3.60;;;;;;;;;;5081186;28;20059;-72
2021/04/07 10:10:15;;;;;;;10.20;4.10;;;;;;;;;;5075723;28;20470;-72
2021/04/07 10:12:41;;;;;;;12.45;2.90;;;;;;;;;;5079516;28;20033;-72
2021/04/07 10:15:06;;;;;;;6.30;3.00;;;;;;;;;;5079771;28;20088;-72
2021/04/07 10:17:33;;;;;;;9.63;2.50;;;;;;;;;;5078673;28;20482;-72
2021/04/07 10:20:15;;;;;;;9.00;3.88;;;;;;;;;;5081945;28;20052;-72
2021/04/07 10:22:41;;;;;;;8.43;3.70;;;;;;;;;;5079373;28;20839;-72
2021/04/07 10:25:15;;;;;;;20.63;3.28;;;;;;;;;;5082151;28;20653;-72
2021/04/07 10:27:42;;;;;;;5.53;2.10;;;;;;;;;;5079761;28;20021;-70
2021/04/07 10:30:12;;;;;;;10.02;2.20;;;;;;;;;;5081824;28;20075;-70
2021/04/07 10:32:44;;;;;;;4.22;2.83;;;;;;;;;;5075679;28;20041;-70
2021/04/07 10:35:10;;;;;;;3.90;2.38;;;;;;;;;;5081022;28;20067;-70
2021/04/07 10:37:36;;;;;;;11.93;4.03;;;;;;;;;;5078775;28;20029;-70
2021/04/07 10:40:02;;;;;;;9.82;4.65;;;;;;;;;;5082035;28;20027;-73
2021/04/07 10:42:29;;;;;;;12.98;3.25;;;;;;;;;;5077043;28;20055;-72
2021/04/07 10:44:58;;;;;;;11.93;3.95;;;;;;;;;;5081537;28;20095;-72
2021/04/07 10:47:23;;;;;;;12.10;3.72;;;;;;;;;;5077890;28;20112;-71
2021/04/07 10:49:52;;;;;;;9.45;4.20;;;;;;;;;;5081039;28;20056;-71
2021/04/07 10:52:28;;;;;;;14.02;3.13;;;;;;;;;;5080028;28;20054;-72
2021/04/07 10:55:00;;;;;;;9.65;2.90;;;;;;;;;;5079125;28;20111;-72
2021/04/07 10:57:35;;;;;;;5.25;2.78;;;;;;;;;;5078727;28;20047;-71
2021/04/07 11:00:00;;;;;;;6.70;3.42;;;;;;;;;;5062189;28;20104;-71
2021/04/07 11:02:26;;;;;;;14.80;3.30;;;;;;;;;;5066718;28;20690;-71
2021/04/07 11:04:51;;;;;;;11.00;3.50;;;;;;;;;;5065019;28;20082;-71
2021/04/07 11:07:17;;;;;;;11.13;4.57;;;;;;;;;;5064283;28;20042;-72
2021/04/07 11:09:46;;;;;;;15.32;3.92;;;;;;;;;;5066484;28;20055;-71
2021/04/07 11:12:12;;;;;;;11.38;3.47;;;;;;;;;;5068800;28;20020;-71
2021/04/07 11:14:39;;;;;;;20.67;11.30;;;;;;;;;;5072500;28;20378;-71
2021/04/07 11:17:05;;;;;;;9.35;4.22;;;;;;;;;;5069491;28;20515;-71
2021/04/07 11:19:34;;;;;;;14.88;3.65;;;;;;;;;;5076573;28;20142;-69
2021/04/07 11:22:00;;;;;;;10.52;3.42;;;;;;;;;;5076610;28;20498;-69
2021/04/07 11:24:26;;;;;;;6.45;3.40;;;;;;;;;;5072646;28;20074;-73
2021/04/07 11:26:54;;;;;;;8.20;3.88;;;;;;;;;;5072394;28;20032;-71
2021/04/07 11:29:20;;;;;;;15.93;5.15;;;;;;;;;;5070827;28;20019;-71
2021/04/07 11:31:48;;;;;;;11.40;4.88;;;;;;;;;;5072070;28;20493;-70
2021/04/07 11:34:16;;;;;;;3.92;2.53;;;;;;;;;;5070588;28;20015;-71
2021/04/07 11:46:41;;;;;;;13.43;3.45;;;;;;;;;;5074850;28;20021;-70
2021/04/07 11:49:06;;;;;;;14.10;5.70;;;;;;;;;;5072806;28;20028;-72
2021/04/07 11:51:36;;;;;;;8.07;2.53;;;;;;;;;;5075875;28;20028;-71
2021/04/07 11:54:01;;;;;;;10.70;2.60;;;;;;;;;;5074201;28;20028;-72
2021/04/07 11:56:27;;;;;;;40.15;36.53;;;;;;;;;;5072756;28;20036;-72
2021/04/07 11:58:52;;;;;;;12.52;3.47;;;;;;;;;;5074498;28;20024;-72
2021/04/07 12:01:17;;;;;;;10.13;2.95;;;;;;;;;;5077422;28;20077;-71
2021/04/07 12:03:43;;;;;;;8.15;3.17;;;;;;;;;;5073398;28;20032;-71
2021/04/07 12:06:09;;;;;;;7.43;2.88;;;;;;;;;;5080137;28;20080;-72
2021/04/07 12:08:34;;;;;;;21.83;5.43;;;;;;;;;;5081139;28;20033;-70
2021/04/07 12:11:00;;;;;;;5.05;2.63;;;;;;;;;;5078876;28;20131;-71
2021/04/07 12:13:26;;;;;;;17.73;4.50;;;;;;;;;;5079546;28;20031;-71
2021/04/07 12:15:51;;;;;;;6.40;3.40;;;;;;;;;;5079992;28;20391;-71
2021/04/07 12:18:16;;;;;;;11.38;4.15;;;;;;;;;;5080593;28;20028;-71
2021/04/07 12:20:42;;;;;;;9.77;2.47;;;;;;;;;;5075215;28;20029;-71
2021/04/07 12:23:07;;;;;;;6.82;3.78;;;;;;;;;;5083097;28;20041;-71
2021/04/07 12:25:32;;;;;;;21.83;3.60;;;;;;;;;;5081145;28;20029;-72
2021/04/07 12:27:57;;;;;;;16.15;4.13;;;;;;;;;;5083816;28;20020;-72
2021/04/07 12:30:23;;;;;;;8.13;2.92;;;;;;;;;;5081774;28;20089;-73
2021/04/07 12:32:49;;;;;;;9.65;2.80;;;;;;;;;;5076076;28;20029;-72
2021/04/07 12:35:15;;;;;;;4.72;2.08;;;;;;;;;;5082803;28;20036;-73
2021/04/07 12:37:43;;;;;;;7.13;3.08;;;;;;;;;;5077569;28;20097;-73
2021/04/07 12:40:08;;;;;;;7.80;3.00;;;;;;;;;;5072956;28;20029;-71
2021/04/07 12:42:34;;;;;;;6.28;3.00;;;;;;;;;;5077309;28;20078;-73
2021/04/07 12:44:59;;;;;;;5.50;2.33;;;;;;;;;;5081535;28;20035;-73
2021/04/07 12:47:25;;;;;;;17.13;3.30;;;;;;;;;;5076859;28;20024;-73
2021/04/07 12:49:50;;;;;;;8.30;3.20;;;;;;;;;;5082708;28;20446;-74
2021/04/07 12:52:15;;;;;;;7.18;4.43;;;;;;;;;;5082304;28;20031;-73
2021/04/07 12:54:41;;;;;;;9.13;4.95;;;;;;;;;;5080581;28;20052;-73
2021/04/07 12:57:06;;;;;;;8.38;2.85;;;;;;;;;;5082730;28;20727;-74
2021/04/07 12:59:31;;;;;;;10.90;3.67;;;;;;;;;;5080065;28;20042;-73
2021/04/07 13:01:57;;;;;;;6.22;1.70;;;;;;;;;;5082880;28;20020;-73
2021/04/07 13:04:22;;;;;;;14.43;5.47;;;;;;;;;;5079353;28;20119;-71
2021/04/07 13:06:47;;;;;;;4.93;2.33;;;;;;;;;;5074046;28;20640;-73
2021/04/07 13:09:13;;;;;;;6.97;3.50;;;;;;;;;;5077150;28;20029;-74
2021/04/07 13:11:38;;;;;;;3.28;1.40;;;;;;;;;;5070393;28;20029;-72
2021/04/07 13:14:03;;;;;;;11.50;3.53;;;;;;;;;;5078281;28;20028;-72
2021/04/07 13:16:29;;;;;;;5.03;3.50;;;;;;;;;;5078469;28;20048;-71
2021/04/07 13:18:54;;;;;;;7.35;3.03;;;;;;;;;;5081177;28;20086;-71
2021/04/07 13:21:20;;;;;;;22.25;3.75;;;;;;;;;;5076732;28;20027;-72
2021/04/07 13:23:45;;;;;;;7.57;3.40;;;;;;;;;;5081384;28;20024;-72
2021/04/07 13:26:10;;;;;;;5.65;2.15;;;;;;;;;;5082323;28;20428;-72
2021/04/07 13:28:36;;;;;;;5.82;2.85;;;;;;;;;;5076226;28;20024;-72
2021/04/07 13:31:03;;;;;;;6.68;2.60;;;;;;;;;;5080518;28;20028;-71
2021/04/07 13:35:57;;;;;;;7.90;2.10;;;;;;;;;;5078375;28;20187;-73
2021/04/07 13:38:39;;;;;;;10.70;2.90;;;;;;;;;;5080216;28;20100;-72
2021/04/07 13:44:00;;;;;;;8.18;2.78;;;;;;;;;;5026388;28;20095;-72
2021/04/07 13:46:25;;;;;;;5.40;2.20;;;;;;;;;;5070602;28;20021;-72
2021/04/07 13:48:52;;;;;;;7.72;2.60;;;;;;;;;;5072081;28;20425;-72
2021/04/07 13:51:17;;;;;;;15.65;3.38;;;;;;;;;;5070936;28;20120;-72
2021/04/07 13:53:43;;;;;;;15.95;3.30;;;;;;;;;;5071635;28;20443;-72
2021/04/07 13:56:12;;;;;;;11.45;3.38;;;;;;;;;;5071054;28;20027;-72
2021/04/07 13:58:38;;;;;;;5.68;2.78;;;;;;;;;;5070238;28;20452;-72
2021/04/07 14:01:04;;;;;;;9.25;3.50;;;;;;;;;;5070717;28;20111;-72
2021/04/07 14:03:29;;;;;;;17.42;3.50;;;;;;;;;;5070681;28;20012;-71
2021/04/07 14:05:54;;;;;;;5.95;3.17;;;;;;;;;;5072402;28;20040;-72
2021/04/07 14:08:20;;;;;;;7.07;2.50;;;;;;;;;;5070591;28;20035;-72
2021/04/07 14:10:47;;;;;;;8.77;3.28;;;;;;;;;;5071144;28;20554;-73
2021/04/07 14:13:13;;;;;;;7.43;2.90;;;;;;;;;;5069958;28;20055;-72
2021/04/07 14:15:38;;;;;;;6.75;2.67;;;;;;;;;;5071168;28;20072;-72
2021/04/07 14:18:04;;;;;;;5.97;2.92;;;;;;;;;;5069833;28;20556;-72
2021/04/07 14:20:30;;;;;;;9.60;3.15;;;;;;;;;;5066279;28;20021;-72
2021/04/07 14:22:55;;;;;;;3.40;2.05;;;;;;;;;;5076823;28;20031;-72
2021/04/07 14:25:25;;;;;;;298.23;211.60;;;;;;;;;;5080432;28;20038;-73
2021/04/07 14:27:55;;;;;;;27.02;14.07;;;;;;;;;;5081915;28;20042;-74
2021/04/07 14:30:20;;;;;;;7.93;2.28;;;;;;;;;;5080176;28;20043;-73
2021/04/07 14:32:45;;;;;;;6.65;3.85;;;;;;;;;;5077358;28;20036;-74
2021/04/07 14:35:11;;;;;;;7.43;3.63;;;;;;;;;;5072821;28;20031;-73
2021/04/07 14:37:37;;;;;;;5.53;3.05;;;;;;;;;;5066325;28;20030;-72
2021/04/07 14:40:02;;;;;;;9.30;3.92;;;;;;;;;;5066609;28;20023;-72
2021/04/07 14:42:28;;;;;;;13.88;4.68;;;;;;;;;;5068599;28;20020;-71
2021/04/07 14:44:53;;;;;;;5.47;3.03;;;;;;;;;;5069541;28;20035;-69
2021/04/07 14:47:18;;;;;;;11.30;6.07;;;;;;;;;;5069572;28;20042;-70